sensor_id;sensor_type;location;lat;lon;timestamp;P1;durP1;ratioP1;P2;durP2;ratioP2
35324;SDS011;35135;47.510;19.036;2023-07-24T00:01:19;3.70;;;3.17;;
35324;SDS011;35135;47.510;19.036;2023-07-24T00:03:44;3.53;;;3.22;;
35324;SDS011;35135;47.510;19.036;2023-07-24T00:06:10;3.25;;;2.95;;
35324;SDS011;35135;47.510;19.036;2023-07-24T00:08:37;4.00;;;3.03;;
35324;SDS011;35135;47.510;19.036;2023-07-24T00:11:06;3.85;;;3.08;;
35324;SDS011;35135;47.510;19.036;2023-07-24T00:13:32;3.38;;;3.08;;
35324;SDS011;35135;47.510;19.036;2023-07-24T00:15:58;3.30;;;3.00;;
35324;SDS011;35135;47.510;19.036;2023-07-24T00:18:23;3.20;;;2.90;;
35324;SDS011;35135;47.510;19.036;2023-07-24T00:20:49;4.30;;;3.42;;
35324;SDS011;35135;47.510;19.036;2023-07-24T00:23:15;3.28;;;2.97;;
35324;SDS011;35135;47.510;19.036;2023-07-24T00:25:40;3.50;;;3.20;;
35324;SDS011;35135;47.510;19.036;2023-07-24T00:28:06;3.38;;;3.08;;
35324;SDS011;35135;47.510;19.036;2023-07-24T00:30:32;4.63;;;3.22;;
35324;SDS011;35135;47.510;19.036;2023-07-24T00:32:57;3.20;;;2.80;;
35324;SDS011;35135;47.510;19.036;2023-07-24T00:35:24;3.50;;;3.00;;
35324;SDS011;35135;47.510;19.036;2023-07-24T00:37:51;3.50;;;3.20;;
35324;SDS011;35135;47.510;19.036;2023-07-24T00:40:17;3.65;;;3.33;;
35324;SDS011;35135;47.510;19.036;2023-07-24T00:42:46;3.50;;;3.03;;
35324;SDS011;35135;47.510;19.036;2023-07-24T00:45:12;3.50;;;3.20;;
35324;SDS011;35135;47.510;19.036;2023-07-24T00:47:38;3.00;;;2.67;;
35324;SDS011;35135;47.510;19.036;2023-07-24T00:50:04;3.08;;;2.78;;
35324;SDS011;35135;47.510;19.036;2023-07-24T00:52:30;2.97;;;2.72;;
35324;SDS011;35135;47.510;19.036;2023-07-24T00:54:55;3.75;;;3.03;;
35324;SDS011;35135;47.510;19.036;2023-07-24T00:57:21;3.70;;;3.10;;
35324;SDS011;35135;47.510;19.036;2023-07-24T00:59:47;4.05;;;3.20;;
35324;SDS011;35135;47.510;19.036;2023-07-24T01:02:13;4.03;;;3.72;;
35324;SDS011;35135;47.510;19.036;2023-07-24T01:04:39;3.42;;;3.13;;
35324;SDS011;35135;47.510;19.036;2023-07-24T01:07:05;3.42;;;3.13;;
35324;SDS011;35135;47.510;19.036;2023-07-24T01:09:31;3.40;;;3.00;;
35324;SDS011;35135;47.510;19.036;2023-07-24T01:11:57;3.95;;;2.97;;
35324;SDS011;35135;47.510;19.036;2023-07-24T01:14:44;4.10;;;3.53;;
35324;SDS011;35135;47.510;19.036;2023-07-24T01:17:14;3.67;;;3.13;;
35324;SDS011;35135;47.510;19.036;2023-07-24T01:19:47;3.55;;;3.25;;
35324;SDS011;35135;47.510;19.036;2023-07-24T01:22:15;3.65;;;3.35;;
35324;SDS011;35135;47.510;19.036;2023-07-24T01:27:42;4.38;;;3.60;;
35324;SDS011;35135;47.510;19.036;2023-07-24T01:30:09;3.70;;;3.05;;
35324;SDS011;35135;47.510;19.036;2023-07-24T01:32:36;3.40;;;3.10;;
35324;SDS011;35135;47.510;19.036;2023-07-24T01:35:03;4.65;;;3.50;;
35324;SDS011;35135;47.510;19.036;2023-07-24T01:37:29;3.75;;;3.30;;
35324;SDS011;35135;47.510;19.036;2023-07-24T01:39:56;3.75;;;3.15;;
35324;SDS011;35135;47.510;19.036;2023-07-24T01:42:23;3.42;;;3.10;;
35324;SDS011;35135;47.510;19.036;2023-07-24T01:44:53;3.97;;;3.58;;
35324;SDS011;35135;47.510;19.036;2023-07-24T01:47:20;3.90;;;3.50;;
35324;SDS011;35135;47.510;19.036;2023-07-24T01:49:46;3.75;;;3.45;;
35324;SDS011;35135;47.510;19.036;2023-07-24T01:52:12;4.13;;;3.50;;
35324;SDS011;35135;47.510;19.036;2023-07-24T01:54:38;3.60;;;3.15;;
35324;SDS011;35135;47.510;19.036;2023-07-24T01:57:04;4.63;;;3.85;;
35324;SDS011;35135;47.510;19.036;2023-07-24T01:59:30;3.80;;;3.42;;
35324;SDS011;35135;47.510;19.036;2023-07-24T02:01:55;4.25;;;3.85;;
35324;SDS011;35135;47.510;19.036;2023-07-24T02:04:21;4.43;;;3.45;;
35324;SDS011;35135;47.510;19.036;2023-07-24T02:06:50;3.97;;;3.50;;
35324;SDS011;35135;47.510;19.036;2023-07-24T02:09:19;3.72;;;3.40;;
35324;SDS011;35135;47.510;19.036;2023-07-24T02:11:45;3.85;;;3.47;;
35324;SDS011;35135;47.510;19.036;2023-07-24T02:14:11;3.83;;;3.45;;
35324;SDS011;35135;47.510;19.036;2023-07-24T02:16:38;4.35;;;3.65;;
35324;SDS011;35135;47.510;19.036;2023-07-24T02:19:04;4.15;;;3.60;;
35324;SDS011;35135;47.510;19.036;2023-07-24T02:21:30;4.15;;;3.72;;
35324;SDS011;35135;47.510;19.036;2023-07-24T02:23:55;4.43;;;4.03;;
35324;SDS011;35135;47.510;19.036;2023-07-24T02:26:21;3.88;;;3.58;;
35324;SDS011;35135;47.510;19.036;2023-07-24T02:28:47;3.75;;;3.42;;
35324;SDS011;35135;47.510;19.036;2023-07-24T02:31:12;4.22;;;3.50;;
35324;SDS011;35135;47.510;19.036;2023-07-24T02:33:38;4.20;;;3.58;;
35324;SDS011;35135;47.510;19.036;2023-07-24T02:36:04;4.07;;;3.67;;
35324;SDS011;35135;47.510;19.036;2023-07-24T02:38:30;4.70;;;3.90;;
35324;SDS011;35135;47.510;19.036;2023-07-24T02:40:55;4.03;;;3.67;;
35324;SDS011;35135;47.510;19.036;2023-07-24T02:43:21;4.00;;;3.58;;
35324;SDS011;35135;47.510;19.036;2023-07-24T02:45:47;3.95;;;3.65;;
35324;SDS011;35135;47.510;19.036;2023-07-24T02:48:13;3.80;;;3.40;;
35324;SDS011;35135;47.510;19.036;2023-07-24T02:50:39;4.03;;;3.70;;
35324;SDS011;35135;47.510;19.036;2023-07-24T02:53:04;3.95;;;3.58;;
35324;SDS011;35135;47.510;19.036;2023-07-24T02:55:30;4.35;;;3.83;;
35324;SDS011;35135;47.510;19.036;2023-07-24T02:57:56;3.92;;;3.63;;
35324;SDS011;35135;47.510;19.036;2023-07-24T03:00:21;4.03;;;3.63;;
35324;SDS011;35135;47.510;19.036;2023-07-24T03:02:47;4.63;;;3.85;;
35324;SDS011;35135;47.510;19.036;2023-07-24T03:05:13;3.65;;;3.30;;
35324;SDS011;35135;47.510;19.036;2023-07-24T03:07:38;4.07;;;3.70;;
35324;SDS011;35135;47.510;19.036;2023-07-24T03:10:04;4.20;;;3.80;;
35324;SDS011;35135;47.510;19.036;2023-07-24T03:12:30;3.88;;;3.55;;
35324;SDS011;35135;47.510;19.036;2023-07-24T03:14:56;4.03;;;3.60;;
35324;SDS011;35135;47.510;19.036;2023-07-24T03:17:22;3.92;;;3.53;;
35324;SDS011;35135;47.510;19.036;2023-07-24T03:19:48;4.15;;;3.75;;
35324;SDS011;35135;47.510;19.036;2023-07-24T03:22:14;4.53;;;3.65;;
35324;SDS011;35135;47.510;19.036;2023-07-24T03:24:40;3.60;;;3.30;;
35324;SDS011;35135;47.510;19.036;2023-07-24T03:27:06;4.22;;;3.78;;
35324;SDS011;35135;47.510;19.036;2023-07-24T03:29:31;4.57;;;3.72;;
35324;SDS011;35135;47.510;19.036;2023-07-24T03:31:57;4.95;;;3.80;;
35324;SDS011;35135;47.510;19.036;2023-07-24T03:34:23;4.30;;;3.75;;
35324;SDS011;35135;47.510;19.036;2023-07-24T03:36:48;4.18;;;3.78;;
35324;SDS011;35135;47.510;19.036;2023-07-24T03:39:14;4.03;;;3.72;;
35324;SDS011;35135;47.510;19.036;2023-07-24T03:41:41;4.10;;;3.70;;
35324;SDS011;35135;47.510;19.036;2023-07-24T03:44:07;4.40;;;4.00;;
35324;SDS011;35135;47.510;19.036;2023-07-24T03:46:33;3.83;;;3.42;;
35324;SDS011;35135;47.510;19.036;2023-07-24T03:48:59;4.22;;;3.83;;
35324;SDS011;35135;47.510;19.036;2023-07-24T03:51:25;3.97;;;3.58;;
35324;SDS011;35135;47.510;19.036;2023-07-24T03:53:51;3.80;;;3.42;;
35324;SDS011;35135;47.510;19.036;2023-07-24T03:56:17;3.90;;;3.45;;
35324;SDS011;35135;47.510;19.036;2023-07-24T03:58:42;4.00;;;3.63;;
35324;SDS011;35135;47.510;19.036;2023-07-24T04:01:08;4.15;;;3.75;;
35324;SDS011;35135;47.510;19.036;2023-07-24T04:03:34;4.07;;;3.67;;
35324;SDS011;35135;47.510;19.036;2023-07-24T04:06:00;4.38;;;3.97;;
35324;SDS011;35135;47.510;19.036;2023-07-24T04:08:26;5.20;;;4.05;;
35324;SDS011;35135;47.510;19.036;2023-07-24T04:10:52;8.85;;;3.88;;
35324;SDS011;35135;47.510;19.036;2023-07-24T04:13:18;4.53;;;3.83;;
35324;SDS011;35135;47.510;19.036;2023-07-24T04:15:44;4.38;;;3.70;;
35324;SDS011;35135;47.510;19.036;2023-07-24T04:18:09;4.32;;;3.60;;
35324;SDS011;35135;47.510;19.036;2023-07-24T04:20:36;4.50;;;4.00;;
35324;SDS011;35135;47.510;19.036;2023-07-24T04:23:02;4.22;;;3.83;;
35324;SDS011;35135;47.510;19.036;2023-07-24T04:25:27;4.50;;;3.85;;
35324;SDS011;35135;47.510;19.036;2023-07-24T04:27:53;4.10;;;3.70;;
35324;SDS011;35135;47.510;19.036;2023-07-24T04:30:19;4.35;;;3.53;;
35324;SDS011;35135;47.510;19.036;2023-07-24T04:32:44;5.00;;;4.05;;
35324;SDS011;35135;47.510;19.036;2023-07-24T04:35:11;4.97;;;3.80;;
35324;SDS011;35135;47.510;19.036;2023-07-24T04:37:37;4.30;;;3.90;;
35324;SDS011;35135;47.510;19.036;2023-07-24T04:40:02;4.75;;;4.20;;
35324;SDS011;35135;47.510;19.036;2023-07-24T04:42:29;4.90;;;4.40;;
35324;SDS011;35135;47.510;19.036;2023-07-24T04:44:54;4.35;;;3.78;;
35324;SDS011;35135;47.510;19.036;2023-07-24T04:47:20;4.85;;;4.35;;
35324;SDS011;35135;47.510;19.036;2023-07-24T04:49:45;4.40;;;3.90;;
35324;SDS011;35135;47.510;19.036;2023-07-24T04:52:11;4.53;;;4.03;;
35324;SDS011;35135;47.510;19.036;2023-07-24T04:54:37;4.93;;;4.15;;
35324;SDS011;35135;47.510;19.036;2023-07-24T04:57:02;4.03;;;3.50;;
35324;SDS011;35135;47.510;19.036;2023-07-24T04:59:28;5.15;;;4.22;;
35324;SDS011;35135;47.510;19.036;2023-07-24T05:01:54;4.40;;;3.58;;
35324;SDS011;35135;47.510;19.036;2023-07-24T05:04:21;4.22;;;3.60;;
35324;SDS011;35135;47.510;19.036;2023-07-24T05:06:46;4.50;;;4.03;;
35324;SDS011;35135;47.510;19.036;2023-07-24T05:09:12;3.97;;;3.65;;
35324;SDS011;35135;47.510;19.036;2023-07-24T05:11:39;4.80;;;3.90;;
35324;SDS011;35135;47.510;19.036;2023-07-24T05:14:05;4.45;;;3.90;;
35324;SDS011;35135;47.510;19.036;2023-07-24T05:16:30;4.70;;;4.30;;
35324;SDS011;35135;47.510;19.036;2023-07-24T05:18:56;4.85;;;3.83;;
35324;SDS011;35135;47.510;19.036;2023-07-24T05:21:22;4.40;;;4.00;;
35324;SDS011;35135;47.510;19.036;2023-07-24T05:23:47;4.38;;;3.97;;
35324;SDS011;35135;47.510;19.036;2023-07-24T05:26:13;4.38;;;3.97;;
35324;SDS011;35135;47.510;19.036;2023-07-24T05:28:39;4.82;;;4.40;;
35324;SDS011;35135;47.510;19.036;2023-07-24T05:31:05;4.53;;;3.95;;
35324;SDS011;35135;47.510;19.036;2023-07-24T05:33:31;4.72;;;4.25;;
35324;SDS011;35135;47.510;19.036;2023-07-24T05:36:01;4.13;;;3.70;;
35324;SDS011;35135;47.510;19.036;2023-07-24T05:38:27;4.40;;;4.00;;
35324;SDS011;35135;47.510;19.036;2023-07-24T05:41:00;4.55;;;4.15;;
35324;SDS011;35135;47.510;19.036;2023-07-24T05:43:27;4.95;;;4.45;;
35324;SDS011;35135;47.510;19.036;2023-07-24T05:45:55;4.55;;;4.03;;
35324;SDS011;35135;47.510;19.036;2023-07-24T05:48:21;4.63;;;4.22;;
35324;SDS011;35135;47.510;19.036;2023-07-24T05:50:47;5.50;;;3.95;;
35324;SDS011;35135;47.510;19.036;2023-07-24T05:53:13;4.25;;;3.75;;
35324;SDS011;35135;47.510;19.036;2023-07-24T05:55:39;4.72;;;4.30;;
35324;SDS011;35135;47.510;19.036;2023-07-24T05:58:05;4.40;;;3.83;;
35324;SDS011;35135;47.510;19.036;2023-07-24T06:00:31;5.35;;;4.40;;
35324;SDS011;35135;47.510;19.036;2023-07-24T06:02:58;5.80;;;4.40;;
35324;SDS011;35135;47.510;19.036;2023-07-24T06:05:23;5.30;;;4.22;;
35324;SDS011;35135;47.510;19.036;2023-07-24T06:07:49;6.82;;;4.35;;
35324;SDS011;35135;47.510;19.036;2023-07-24T06:10:15;5.35;;;4.18;;
35324;SDS011;35135;47.510;19.036;2023-07-24T06:12:40;5.10;;;4.13;;
35324;SDS011;35135;47.510;19.036;2023-07-24T06:15:06;6.00;;;4.78;;
35324;SDS011;35135;47.510;19.036;2023-07-24T06:17:32;5.45;;;4.18;;
35324;SDS011;35135;47.510;19.036;2023-07-24T06:19:58;5.10;;;4.47;;
35324;SDS011;35135;47.510;19.036;2023-07-24T06:22:24;6.10;;;4.68;;
35324;SDS011;35135;47.510;19.036;2023-07-24T06:24:49;5.22;;;4.15;;
35324;SDS011;35135;47.510;19.036;2023-07-24T06:27:15;5.20;;;4.53;;
35324;SDS011;35135;47.510;19.036;2023-07-24T06:29:41;4.80;;;4.40;;
35324;SDS011;35135;47.510;19.036;2023-07-24T06:32:07;5.28;;;4.72;;
35324;SDS011;35135;47.510;19.036;2023-07-24T06:34:33;5.00;;;4.47;;
35324;SDS011;35135;47.510;19.036;2023-07-24T06:36:59;4.47;;;4.07;;
35324;SDS011;35135;47.510;19.036;2023-07-24T06:39:24;6.32;;;4.32;;
35324;SDS011;35135;47.510;19.036;2023-07-24T06:41:51;5.82;;;4.97;;
35324;SDS011;35135;47.510;19.036;2023-07-24T06:44:17;4.50;;;4.05;;
35324;SDS011;35135;47.510;19.036;2023-07-24T06:46:43;9.88;;;4.65;;
35324;SDS011;35135;47.510;19.036;2023-07-24T06:49:09;4.47;;;4.07;;
35324;SDS011;35135;47.510;19.036;2023-07-24T06:51:36;5.90;;;4.65;;
35324;SDS011;35135;47.510;19.036;2023-07-24T06:54:03;4.80;;;4.25;;
35324;SDS011;35135;47.510;19.036;2023-07-24T06:56:29;6.07;;;4.45;;
35324;SDS011;35135;47.510;19.036;2023-07-24T06:58:55;5.80;;;4.63;;
35324;SDS011;35135;47.510;19.036;2023-07-24T07:01:21;4.63;;;4.22;;
35324;SDS011;35135;47.510;19.036;2023-07-24T07:03:47;5.05;;;4.55;;
35324;SDS011;35135;47.510;19.036;2023-07-24T07:06:12;5.00;;;4.50;;
35324;SDS011;35135;47.510;19.036;2023-07-24T07:08:38;6.20;;;4.50;;
35324;SDS011;35135;47.510;19.036;2023-07-24T07:11:04;5.30;;;4.63;;
35324;SDS011;35135;47.510;19.036;2023-07-24T07:13:30;5.40;;;4.82;;
35324;SDS011;35135;47.510;19.036;2023-07-24T07:15:55;4.95;;;4.30;;
35324;SDS011;35135;47.510;19.036;2023-07-24T07:18:21;4.93;;;4.43;;
35324;SDS011;35135;47.510;19.036;2023-07-24T07:20:47;5.05;;;4.40;;
35324;SDS011;35135;47.510;19.036;2023-07-24T07:23:14;4.57;;;4.18;;
35324;SDS011;35135;47.510;19.036;2023-07-24T07:25:40;4.72;;;4.32;;
35324;SDS011;35135;47.510;19.036;2023-07-24T07:28:08;6.10;;;4.75;;
35324;SDS011;35135;47.510;19.036;2023-07-24T07:30:34;4.72;;;4.22;;
35324;SDS011;35135;47.510;19.036;2023-07-24T07:33:00;4.93;;;4.43;;
35324;SDS011;35135;47.510;19.036;2023-07-24T07:35:25;5.15;;;4.65;;
35324;SDS011;35135;47.510;19.036;2023-07-24T07:37:51;5.13;;;4.47;;
35324;SDS011;35135;47.510;19.036;2023-07-24T07:40:17;5.30;;;4.40;;
35324;SDS011;35135;47.510;19.036;2023-07-24T07:42:43;5.65;;;4.80;;
35324;SDS011;35135;47.510;19.036;2023-07-24T07:45:10;5.97;;;4.50;;
35324;SDS011;35135;47.510;19.036;2023-07-24T07:47:36;6.13;;;4.78;;
35324;SDS011;35135;47.510;19.036;2023-07-24T07:50:02;4.97;;;4.47;;
35324;SDS011;35135;47.510;19.036;2023-07-24T07:52:28;5.03;;;4.53;;
35324;SDS011;35135;47.510;19.036;2023-07-24T07:54:53;5.20;;;4.70;;
35324;SDS011;35135;47.510;19.036;2023-07-24T07:57:19;5.32;;;4.82;;
35324;SDS011;35135;47.510;19.036;2023-07-24T07:59:44;7.47;;;4.35;;
35324;SDS011;35135;47.510;19.036;2023-07-24T08:02:10;5.18;;;4.43;;
35324;SDS011;35135;47.510;19.036;2023-07-24T08:04:36;5.68;;;4.45;;
35324;SDS011;35135;47.510;19.036;2023-07-24T08:07:02;5.03;;;4.53;;
35324;SDS011;35135;47.510;19.036;2023-07-24T08:09:28;6.10;;;4.50;;
35324;SDS011;35135;47.510;19.036;2023-07-24T08:11:54;4.55;;;4.15;;
35324;SDS011;35135;47.510;19.036;2023-07-24T08:14:20;6.18;;;4.25;;
35324;SDS011;35135;47.510;19.036;2023-07-24T08:16:49;4.25;;;3.85;;
35324;SDS011;35135;47.510;19.036;2023-07-24T08:19:14;5.07;;;4.57;;
35324;SDS011;35135;47.510;19.036;2023-07-24T08:21:40;5.35;;;4.85;;
35324;SDS011;35135;47.510;19.036;2023-07-24T08:24:06;5.30;;;4.80;;
35324;SDS011;35135;47.510;19.036;2023-07-24T08:26:32;6.03;;;4.57;;
35324;SDS011;35135;47.510;19.036;2023-07-24T08:28:58;5.13;;;4.20;;
35324;SDS011;35135;47.510;19.036;2023-07-24T08:31:23;5.30;;;4.80;;
35324;SDS011;35135;47.510;19.036;2023-07-24T08:33:49;5.68;;;4.57;;
35324;SDS011;35135;47.510;19.036;2023-07-24T08:36:15;5.07;;;4.43;;
35324;SDS011;35135;47.510;19.036;2023-07-24T08:38:41;4.63;;;4.22;;
35324;SDS011;35135;47.510;19.036;2023-07-24T08:41:11;5.75;;;4.70;;
35324;SDS011;35135;47.510;19.036;2023-07-24T08:43:38;5.53;;;5.03;;
35324;SDS011;35135;47.510;19.036;2023-07-24T08:46:05;5.05;;;4.55;;
35324;SDS011;35135;47.510;19.036;2023-07-24T08:51:01;4.93;;;4.43;;
35324;SDS011;35135;47.510;19.036;2023-07-24T08:53:35;4.90;;;4.25;;
35324;SDS011;35135;47.510;19.036;2023-07-24T08:56:05;5.18;;;4.65;;
35324;SDS011;35135;47.510;19.036;2023-07-24T08:58:32;5.85;;;4.65;;
35324;SDS011;35135;47.510;19.036;2023-07-24T09:00:59;5.75;;;4.30;;
35324;SDS011;35135;47.510;19.036;2023-07-24T09:03:26;4.90;;;4.40;;
35324;SDS011;35135;47.510;19.036;2023-07-24T09:05:52;5.30;;;4.68;;
35324;SDS011;35135;47.510;19.036;2023-07-24T09:08:30;5.47;;;4.93;;
35324;SDS011;35135;47.510;19.036;2023-07-24T09:11:07;5.70;;;4.90;;
35324;SDS011;35135;47.510;19.036;2023-07-24T09:13:37;6.80;;;5.05;;
35324;SDS011;35135;47.510;19.036;2023-07-24T09:16:07;5.22;;;4.40;;
35324;SDS011;35135;47.510;19.036;2023-07-24T09:18:39;5.82;;;5.05;;
35324;SDS011;35135;47.510;19.036;2023-07-24T09:21:06;4.72;;;4.30;;
35324;SDS011;35135;47.510;19.036;2023-07-24T09:23:32;5.40;;;4.90;;
35324;SDS011;35135;47.510;19.036;2023-07-24T09:25:58;5.20;;;4.70;;
35324;SDS011;35135;47.510;19.036;2023-07-24T09:28:24;7.43;;;5.57;;
35324;SDS011;35135;47.510;19.036;2023-07-24T09:30:56;5.20;;;4.70;;
35324;SDS011;35135;47.510;19.036;2023-07-24T09:33:35;5.78;;;5.18;;
35324;SDS011;35135;47.510;19.036;2023-07-24T09:36:06;5.70;;;5.13;;
35324;SDS011;35135;47.510;19.036;2023-07-24T09:38:34;5.55;;;4.93;;
35324;SDS011;35135;47.510;19.036;2023-07-24T09:41:01;5.75;;;5.15;;
35324;SDS011;35135;47.510;19.036;2023-07-24T09:43:28;6.15;;;5.40;;
35324;SDS011;35135;47.510;19.036;2023-07-24T09:45:55;5.82;;;4.97;;
35324;SDS011;35135;47.510;19.036;2023-07-24T09:48:25;6.43;;;4.93;;
35324;SDS011;35135;47.510;19.036;2023-07-24T09:51:00;6.00;;;5.32;;
35324;SDS011;35135;47.510;19.036;2023-07-24T09:53:39;6.25;;;5.38;;
35324;SDS011;35135;47.510;19.036;2023-07-24T09:56:11;5.50;;;4.72;;
35324;SDS011;35135;47.510;19.036;2023-07-24T09:58:39;6.13;;;5.53;;
35324;SDS011;35135;47.510;19.036;2023-07-24T10:01:08;5.93;;;5.32;;
35324;SDS011;35135;47.510;19.036;2023-07-24T10:03:35;6.00;;;5.50;;
35324;SDS011;35135;47.510;19.036;2023-07-24T10:06:05;6.40;;;5.80;;
35324;SDS011;35135;47.510;19.036;2023-07-24T10:08:35;5.80;;;5.30;;
35324;SDS011;35135;47.510;19.036;2023-07-24T10:11:01;5.97;;;5.43;;
35324;SDS011;35135;47.510;19.036;2023-07-24T10:13:27;6.35;;;5.70;;
35324;SDS011;35135;47.510;19.036;2023-07-24T10:15:54;6.38;;;5.70;;
35324;SDS011;35135;47.510;19.036;2023-07-24T10:18:27;6.10;;;5.50;;
35324;SDS011;35135;47.510;19.036;2023-07-24T10:21:04;6.18;;;5.55;;
35324;SDS011;35135;47.510;19.036;2023-07-24T10:23:33;6.80;;;5.95;;
35324;SDS011;35135;47.510;19.036;2023-07-24T10:26:05;6.07;;;5.47;;
35324;SDS011;35135;47.510;19.036;2023-07-24T10:28:32;6.28;;;5.68;;
35324;SDS011;35135;47.510;19.036;2023-07-24T10:31:00;6.82;;;6.15;;
35324;SDS011;35135;47.510;19.036;2023-07-24T10:33:29;7.13;;;6.43;;
35324;SDS011;35135;47.510;19.036;2023-07-24T10:36:03;7.70;;;6.90;;
35324;SDS011;35135;47.510;19.036;2023-07-24T10:38:37;7.20;;;6.50;;
35324;SDS011;35135;47.510;19.036;2023-07-24T10:41:04;7.07;;;6.05;;
35324;SDS011;35135;47.510;19.036;2023-07-24T10:43:50;7.57;;;6.32;;
35324;SDS011;35135;47.510;19.036;2023-07-24T10:46:18;7.07;;;6.15;;
35324;SDS011;35135;47.510;19.036;2023-07-24T10:48:45;7.57;;;6.88;;
35324;SDS011;35135;47.510;19.036;2023-07-24T10:51:12;8.02;;;6.72;;
35324;SDS011;35135;47.510;19.036;2023-07-24T10:53:44;7.78;;;6.97;;
35324;SDS011;35135;47.510;19.036;2023-07-24T10:56:12;7.68;;;6.80;;
35324;SDS011;35135;47.510;19.036;2023-07-24T10:58:38;7.78;;;6.97;;
35324;SDS011;35135;47.510;19.036;2023-07-24T11:01:04;8.15;;;7.35;;
35324;SDS011;35135;47.510;19.036;2023-07-24T11:03:30;7.72;;;6.97;;
35324;SDS011;35135;47.510;19.036;2023-07-24T11:05:56;9.27;;;7.63;;
35324;SDS011;35135;47.510;19.036;2023-07-24T11:08:23;8.75;;;7.93;;
35324;SDS011;35135;47.510;19.036;2023-07-24T11:10:50;9.20;;;8.05;;
35324;SDS011;35135;47.510;19.036;2023-07-24T11:13:17;9.27;;;7.45;;
35324;SDS011;35135;47.510;19.036;2023-07-24T11:16:06;8.02;;;6.82;;
35324;SDS011;35135;47.510;19.036;2023-07-24T11:18:43;8.88;;;7.95;;
35324;SDS011;35135;47.510;19.036;2023-07-24T11:21:12;8.73;;;7.68;;
35324;SDS011;35135;47.510;19.036;2023-07-24T11:23:44;9.00;;;8.10;;
35324;SDS011;35135;47.510;19.036;2023-07-24T11:26:11;9.75;;;8.75;;
35324;SDS011;35135;47.510;19.036;2023-07-24T11:28:40;9.05;;;8.13;;
35324;SDS011;35135;47.510;19.036;2023-07-24T11:31:06;8.98;;;7.60;;
35324;SDS011;35135;47.510;19.036;2023-07-24T11:33:31;10.85;;;8.50;;
35324;SDS011;35135;47.510;19.036;2023-07-24T11:35:58;9.85;;;8.30;;
35324;SDS011;35135;47.510;19.036;2023-07-24T11:38:24;9.40;;;8.23;;
35324;SDS011;35135;47.510;19.036;2023-07-24T11:40:50;9.77;;;8.07;;
35324;SDS011;35135;47.510;19.036;2023-07-24T11:43:20;8.50;;;7.68;;
35324;SDS011;35135;47.510;19.036;2023-07-24T11:45:47;9.18;;;8.15;;
35324;SDS011;35135;47.510;19.036;2023-07-24T11:48:16;9.07;;;7.85;;
35324;SDS011;35135;47.510;19.036;2023-07-24T11:50:47;9.07;;;8.18;;
35324;SDS011;35135;47.510;19.036;2023-07-24T11:53:23;8.77;;;7.50;;
35324;SDS011;35135;47.510;19.036;2023-07-24T11:56:00;8.85;;;7.30;;
35324;SDS011;35135;47.510;19.036;2023-07-24T11:58:29;8.98;;;7.65;;
35324;SDS011;35135;47.510;19.036;2023-07-24T12:00:55;8.30;;;7.30;;
35324;SDS011;35135;47.510;19.036;2023-07-24T12:03:22;8.02;;;7.05;;
35324;SDS011;35135;47.510;19.036;2023-07-24T12:05:50;8.93;;;8.02;;
35324;SDS011;35135;47.510;19.036;2023-07-24T12:08:16;9.70;;;7.82;;
35324;SDS011;35135;47.510;19.036;2023-07-24T12:10:43;8.55;;;7.65;;
35324;SDS011;35135;47.510;19.036;2023-07-24T12:13:09;9.40;;;7.45;;
35324;SDS011;35135;47.510;19.036;2023-07-24T12:15:36;9.27;;;8.07;;
35324;SDS011;35135;47.510;19.036;2023-07-24T12:18:02;8.45;;;7.63;;
35324;SDS011;35135;47.510;19.036;2023-07-24T12:20:28;10.05;;;8.27;;
35324;SDS011;35135;47.510;19.036;2023-07-24T12:22:54;9.38;;;7.68;;
35324;SDS011;35135;47.510;19.036;2023-07-24T12:25:20;10.48;;;8.15;;
35324;SDS011;35135;47.510;19.036;2023-07-24T12:27:46;9.13;;;7.57;;
35324;SDS011;35135;47.510;19.036;2023-07-24T12:30:13;8.70;;;7.80;;
35324;SDS011;35135;47.510;19.036;2023-07-24T12:32:38;8.48;;;7.68;;
35324;SDS011;35135;47.510;19.036;2023-07-24T12:35:04;9.20;;;8.07;;
35324;SDS011;35135;47.510;19.036;2023-07-24T12:37:30;8.43;;;7.35;;
35324;SDS011;35135;47.510;19.036;2023-07-24T12:39:56;8.90;;;8.00;;
35324;SDS011;35135;47.510;19.036;2023-07-24T12:42:22;8.80;;;7.78;;
35324;SDS011;35135;47.510;19.036;2023-07-24T12:44:48;8.95;;;8.05;;
35324;SDS011;35135;47.510;19.036;2023-07-24T12:47:14;8.68;;;7.68;;
35324;SDS011;35135;47.510;19.036;2023-07-24T12:49:40;8.80;;;7.70;;
35324;SDS011;35135;47.510;19.036;2023-07-24T12:52:06;8.25;;;7.45;;
35324;SDS011;35135;47.510;19.036;2023-07-24T12:54:32;8.50;;;7.60;;
35324;SDS011;35135;47.510;19.036;2023-07-24T12:56:59;7.93;;;7.15;;
35324;SDS011;35135;47.510;19.036;2023-07-24T12:59:26;9.95;;;8.40;;
35324;SDS011;35135;47.510;19.036;2023-07-24T13:01:51;8.40;;;7.60;;
35324;SDS011;35135;47.510;19.036;2023-07-24T13:04:18;8.27;;;7.47;;
35324;SDS011;35135;47.510;19.036;2023-07-24T13:06:44;8.88;;;7.70;;
35324;SDS011;35135;47.510;19.036;2023-07-24T13:09:10;9.70;;;8.65;;
35324;SDS011;35135;47.510;19.036;2023-07-24T13:11:36;9.38;;;8.25;;
35324;SDS011;35135;47.510;19.036;2023-07-24T13:14:01;9.07;;;8.18;;
35324;SDS011;35135;47.510;19.036;2023-07-24T13:16:27;8.82;;;7.93;;
35324;SDS011;35135;47.510;19.036;2023-07-24T13:18:53;8.77;;;7.63;;
35324;SDS011;35135;47.510;19.036;2023-07-24T13:21:19;8.30;;;7.50;;
35324;SDS011;35135;47.510;19.036;2023-07-24T13:23:44;8.88;;;7.95;;
35324;SDS011;35135;47.510;19.036;2023-07-24T13:26:10;8.27;;;7.40;;
35324;SDS011;35135;47.510;19.036;2023-07-24T13:28:37;8.52;;;7.70;;
35324;SDS011;35135;47.510;19.036;2023-07-24T13:31:16;8.20;;;7.40;;
35324;SDS011;35135;47.510;19.036;2023-07-24T13:33:43;8.20;;;7.40;;
35324;SDS011;35135;47.510;19.036;2023-07-24T13:36:09;8.45;;;7.55;;
35324;SDS011;35135;47.510;19.036;2023-07-24T13:38:35;8.63;;;7.80;;
35324;SDS011;35135;47.510;19.036;2023-07-24T13:41:02;8.32;;;7.53;;
35324;SDS011;35135;47.510;19.036;2023-07-24T13:43:29;8.95;;;7.97;;
35324;SDS011;35135;47.510;19.036;2023-07-24T13:45:56;8.27;;;7.38;;
35324;SDS011;35135;47.510;19.036;2023-07-24T13:48:22;8.57;;;7.65;;
35324;SDS011;35135;47.510;19.036;2023-07-24T13:50:48;10.73;;;8.32;;
35324;SDS011;35135;47.510;19.036;2023-07-24T13:53:15;9.07;;;7.60;;
35324;SDS011;35135;47.510;19.036;2023-07-24T13:55:41;8.75;;;7.85;;
35324;SDS011;35135;47.510;19.036;2023-07-24T13:58:06;8.77;;;7.43;;
35324;SDS011;35135;47.510;19.036;2023-07-24T14:00:32;8.68;;;7.30;;
35324;SDS011;35135;47.510;19.036;2023-07-24T14:02:58;8.95;;;8.07;;
35324;SDS011;35135;47.510;19.036;2023-07-24T14:05:23;8.57;;;7.68;;
35324;SDS011;35135;47.510;19.036;2023-07-24T14:07:49;10.85;;;7.90;;
35324;SDS011;35135;47.510;19.036;2023-07-24T14:10:15;8.85;;;7.95;;
35324;SDS011;35135;47.510;19.036;2023-07-24T14:12:40;9.30;;;8.25;;
35324;SDS011;35135;47.510;19.036;2023-07-24T14:15:06;8.65;;;7.60;;
35324;SDS011;35135;47.510;19.036;2023-07-24T14:17:32;8.90;;;8.00;;
35324;SDS011;35135;47.510;19.036;2023-07-24T14:19:59;8.93;;;8.02;;
35324;SDS011;35135;47.510;19.036;2023-07-24T14:22:26;9.38;;;8.05;;
35324;SDS011;35135;47.510;19.036;2023-07-24T14:24:51;9.38;;;8.23;;
35324;SDS011;35135;47.510;19.036;2023-07-24T14:27:17;8.90;;;7.65;;
35324;SDS011;35135;47.510;19.036;2023-07-24T14:29:43;9.23;;;7.70;;
35324;SDS011;35135;47.510;19.036;2023-07-24T14:32:09;9.07;;;8.13;;
35324;SDS011;35135;47.510;19.036;2023-07-24T14:34:35;8.90;;;8.00;;
35324;SDS011;35135;47.510;19.036;2023-07-24T14:37:00;9.93;;;8.57;;